sensor_id;sensor_type;location;lat;lon;timestamp;P1;durP1;ratioP1;P2;durP2;ratioP2
19207;SDS011;9737;59.466;18.036;2023-04-24T00:00:31;3.75;;;2.72;;
19207;SDS011;9737;59.466;18.036;2023-04-24T00:02:59;7.18;;;2.92;;
19207;SDS011;9737;59.466;18.036;2023-04-24T00:05:27;3.38;;;2.53;;
19207;SDS011;9737;59.466;18.036;2023-04-24T00:07:55;2.90;;;2.60;;
19207;SDS011;9737;59.466;18.036;2023-04-24T00:10:23;3.97;;;2.83;;
19207;SDS011;9737;59.466;18.036;2023-04-24T00:12:52;3.35;;;2.60;;
19207;SDS011;9737;59.466;18.036;2023-04-24T00:15:20;3.80;;;2.10;;
19207;SDS011;9737;59.466;18.036;2023-04-24T00:17:48;2.45;;;2.25;;
19207;SDS011;9737;59.466;18.036;2023-04-24T00:20:16;3.22;;;2.20;;
19207;SDS011;9737;59.466;18.036;2023-04-24T00:22:45;2.40;;;2.20;;
19207;SDS011;9737;59.466;18.036;2023-04-24T00:25:13;3.67;;;2.40;;
19207;SDS011;9737;59.466;18.036;2023-04-24T00:27:41;3.13;;;2.42;;
19207;SDS011;9737;59.466;18.036;2023-04-24T00:30:10;2.42;;;2.20;;
19207;SDS011;9737;59.466;18.036;2023-04-24T00:32:39;2.25;;;2.05;;
19207;SDS011;9737;59.466;18.036;2023-04-24T00:35:07;4.90;;;2.33;;
19207;SDS011;9737;59.466;18.036;2023-04-24T00:37:35;3.20;;;2.40;;
19207;SDS011;9737;59.466;18.036;2023-04-24T00:40:03;5.68;;;2.88;;
19207;SDS011;9737;59.466;18.036;2023-04-24T00:42:32;3.60;;;2.40;;
19207;SDS011;9737;59.466;18.036;2023-04-24T00:45:00;3.72;;;2.35;;
19207;SDS011;9737;59.466;18.036;2023-04-24T00:47:30;5.30;;;2.78;;
19207;SDS011;9737;59.466;18.036;2023-04-24T00:50:00;4.15;;;2.38;;
19207;SDS011;9737;59.466;18.036;2023-04-24T00:52:29;7.00;;;3.15;;
19207;SDS011;9737;59.466;18.036;2023-04-24T00:54:58;5.55;;;2.45;;
19207;SDS011;9737;59.466;18.036;2023-04-24T00:57:26;8.15;;;3.13;;
19207;SDS011;9737;59.466;18.036;2023-04-24T00:59:54;4.53;;;2.50;;
19207;SDS011;9737;59.466;18.036;2023-04-24T01:02:22;6.50;;;2.50;;
19207;SDS011;9737;59.466;18.036;2023-04-24T01:04:52;6.10;;;2.50;;
19207;SDS011;9737;59.466;18.036;2023-04-24T01:07:20;5.90;;;2.90;;
19207;SDS011;9737;59.466;18.036;2023-04-24T01:09:48;7.13;;;2.88;;
19207;SDS011;9737;59.466;18.036;2023-04-24T01:12:17;9.07;;;2.83;;
19207;SDS011;9737;59.466;18.036;2023-04-24T01:14:45;5.68;;;2.50;;
19207;SDS011;9737;59.466;18.036;2023-04-24T01:17:13;4.28;;;2.45;;
19207;SDS011;9737;59.466;18.036;2023-04-24T01:19:42;4.85;;;2.55;;
19207;SDS011;9737;59.466;18.036;2023-04-24T01:22:13;8.05;;;2.75;;
19207;SDS011;9737;59.466;18.036;2023-04-24T01:24:41;6.25;;;2.97;;
19207;SDS011;9737;59.466;18.036;2023-04-24T01:27:09;5.97;;;2.92;;
19207;SDS011;9737;59.466;18.036;2023-04-24T01:29:38;6.15;;;3.00;;
19207;SDS011;9737;59.466;18.036;2023-04-24T01:32:06;5.70;;;2.97;;
19207;SDS011;9737;59.466;18.036;2023-04-24T01:34:34;6.25;;;2.88;;
19207;SDS011;9737;59.466;18.036;2023-04-24T01:37:02;9.02;;;3.05;;
19207;SDS011;9737;59.466;18.036;2023-04-24T01:39:32;5.97;;;2.97;;
19207;SDS011;9737;59.466;18.036;2023-04-24T01:42:00;8.20;;;3.20;;
19207;SDS011;9737;59.466;18.036;2023-04-24T01:44:28;9.40;;;3.45;;
19207;SDS011;9737;59.466;18.036;2023-04-24T01:46:58;6.25;;;2.95;;
19207;SDS011;9737;59.466;18.036;2023-04-24T01:49:26;6.72;;;2.90;;
19207;SDS011;9737;59.466;18.036;2023-04-24T01:51:54;10.77;;;3.50;;
19207;SDS011;9737;59.466;18.036;2023-04-24T01:54:22;7.20;;;3.00;;
19207;SDS011;9737;59.466;18.036;2023-04-24T01:56:51;6.30;;;3.25;;
19207;SDS011;9737;59.466;18.036;2023-04-24T01:59:19;7.82;;;3.70;;
19207;SDS011;9737;59.466;18.036;2023-04-24T02:01:49;5.93;;;3.40;;
19207;SDS011;9737;59.466;18.036;2023-04-24T02:04:16;7.22;;;3.65;;
19207;SDS011;9737;59.466;18.036;2023-04-24T02:06:44;6.47;;;3.50;;
19207;SDS011;9737;59.466;18.036;2023-04-24T02:09:12;8.30;;;3.47;;
19207;SDS011;9737;59.466;18.036;2023-04-24T02:11:40;6.90;;;4.25;;
19207;SDS011;9737;59.466;18.036;2023-04-24T02:14:10;8.65;;;3.97;;
19207;SDS011;9737;59.466;18.036;2023-04-24T02:16:38;8.52;;;3.65;;
19207;SDS011;9737;59.466;18.036;2023-04-24T02:19:05;7.65;;;3.60;;
19207;SDS011;9737;59.466;18.036;2023-04-24T02:21:34;5.95;;;3.67;;
19207;SDS011;9737;59.466;18.036;2023-04-24T02:24:02;6.50;;;3.53;;
19207;SDS011;9737;59.466;18.036;2023-04-24T02:26:30;10.00;;;4.00;;
19207;SDS011;9737;59.466;18.036;2023-04-24T02:28:58;6.25;;;3.70;;
19207;SDS011;9737;59.466;18.036;2023-04-24T02:31:27;8.48;;;4.45;;
19207;SDS011;9737;59.466;18.036;2023-04-24T02:33:55;6.88;;;3.80;;
19207;SDS011;9737;59.466;18.036;2023-04-24T02:36:23;6.05;;;4.13;;
19207;SDS011;9737;59.466;18.036;2023-04-24T02:38:51;6.15;;;4.10;;
19207;SDS011;9737;59.466;18.036;2023-04-24T02:41:19;10.40;;;4.20;;
19207;SDS011;9737;59.466;18.036;2023-04-24T02:43:47;6.95;;;3.58;;
19207;SDS011;9737;59.466;18.036;2023-04-24T02:46:15;7.72;;;3.88;;
19207;SDS011;9737;59.466;18.036;2023-04-24T02:48:45;8.98;;;3.95;;
19207;SDS011;9737;59.466;18.036;2023-04-24T02:51:14;7.03;;;3.28;;
19207;SDS011;9737;59.466;18.036;2023-04-24T02:53:42;8.23;;;4.15;;
19207;SDS011;9737;59.466;18.036;2023-04-24T02:56:09;10.80;;;3.55;;
19207;SDS011;9737;59.466;18.036;2023-04-24T02:58:38;7.38;;;3.45;;
19207;SDS011;9737;59.466;18.036;2023-04-24T03:01:06;7.95;;;3.15;;
19207;SDS011;9737;59.466;18.036;2023-04-24T03:03:34;9.52;;;3.10;;
19207;SDS011;9737;59.466;18.036;2023-04-24T03:06:03;7.15;;;3.33;;
19207;SDS011;9737;59.466;18.036;2023-04-24T03:08:32;8.25;;;2.95;;
19207;SDS011;9737;59.466;18.036;2023-04-24T03:11:00;8.15;;;3.58;;
19207;SDS011;9737;59.466;18.036;2023-04-24T03:13:28;6.97;;;3.33;;
19207;SDS011;9737;59.466;18.036;2023-04-24T03:15:56;5.93;;;3.10;;
19207;SDS011;9737;59.466;18.036;2023-04-24T03:18:24;6.53;;;3.15;;
19207;SDS011;9737;59.466;18.036;2023-04-24T03:20:52;7.43;;;3.90;;
19207;SDS011;9737;59.466;18.036;2023-04-24T03:23:21;6.20;;;3.85;;
19207;SDS011;9737;59.466;18.036;2023-04-24T03:25:49;7.43;;;3.83;;
19207;SDS011;9737;59.466;18.036;2023-04-24T03:28:16;8.52;;;3.70;;
19207;SDS011;9737;59.466;18.036;2023-04-24T03:30:46;4.93;;;3.25;;
19207;SDS011;9737;59.466;18.036;2023-04-24T03:33:14;7.82;;;3.70;;
19207;SDS011;9737;59.466;18.036;2023-04-24T03:35:42;6.60;;;3.78;;
19207;SDS011;9737;59.466;18.036;2023-04-24T03:38:09;6.30;;;3.30;;
19207;SDS011;9737;59.466;18.036;2023-04-24T03:40:38;6.70;;;3.53;;
19207;SDS011;9737;59.466;18.036;2023-04-24T03:43:06;8.65;;;3.50;;
19207;SDS011;9737;59.466;18.036;2023-04-24T03:45:34;9.93;;;2.92;;
19207;SDS011;9737;59.466;18.036;2023-04-24T03:48:02;6.07;;;2.85;;
19207;SDS011;9737;59.466;18.036;2023-04-24T03:50:30;6.68;;;3.30;;
19207;SDS011;9737;59.466;18.036;2023-04-24T03:52:58;9.93;;;3.08;;
19207;SDS011;9737;59.466;18.036;2023-04-24T03:55:26;6.78;;;3.10;;
19207;SDS011;9737;59.466;18.036;2023-04-24T03:57:55;6.30;;;2.92;;
19207;SDS011;9737;59.466;18.036;2023-04-24T04:00:23;5.82;;;2.95;;
19207;SDS011;9737;59.466;18.036;2023-04-24T04:02:52;8.85;;;3.10;;
19207;SDS011;9737;59.466;18.036;2023-04-24T04:05:20;5.60;;;2.85;;
19207;SDS011;9737;59.466;18.036;2023-04-24T04:07:48;10.00;;;3.55;;
19207;SDS011;9737;59.466;18.036;2023-04-24T04:10:16;6.47;;;3.10;;
19207;SDS011;9737;59.466;18.036;2023-04-24T04:12:45;6.72;;;3.28;;
19207;SDS011;9737;59.466;18.036;2023-04-24T04:15:14;8.23;;;3.17;;
19207;SDS011;9737;59.466;18.036;2023-04-24T04:17:42;7.95;;;3.17;;
19207;SDS011;9737;59.466;18.036;2023-04-24T04:20:12;7.70;;;3.53;;
19207;SDS011;9737;59.466;18.036;2023-04-24T04:22:40;7.78;;;3.30;;
19207;SDS011;9737;59.466;18.036;2023-04-24T04:25:10;7.03;;;3.22;;
19207;SDS011;9737;59.466;18.036;2023-04-24T04:27:39;7.93;;;3.20;;
19207;SDS011;9737;59.466;18.036;2023-04-24T04:30:08;7.93;;;3.25;;
19207;SDS011;9737;59.466;18.036;2023-04-24T04:32:37;6.60;;;3.08;;
19207;SDS011;9737;59.466;18.036;2023-04-24T04:35:05;6.93;;;3.55;;
19207;SDS011;9737;59.466;18.036;2023-04-24T04:37:33;8.88;;;3.67;;
19207;SDS011;9737;59.466;18.036;2023-04-24T04:40:01;7.82;;;3.22;;
19207;SDS011;9737;59.466;18.036;2023-04-24T04:42:32;7.30;;;3.28;;
19207;SDS011;9737;59.466;18.036;2023-04-24T04:45:01;6.30;;;3.42;;
19207;SDS011;9737;59.466;18.036;2023-04-24T04:47:30;6.20;;;3.20;;
19207;SDS011;9737;59.466;18.036;2023-04-24T04:50:00;8.05;;;2.92;;
19207;SDS011;9737;59.466;18.036;2023-04-24T04:52:28;7.28;;;3.20;;
19207;SDS011;9737;59.466;18.036;2023-04-24T04:54:56;10.13;;;3.63;;
19207;SDS011;9737;59.466;18.036;2023-04-24T04:57:24;7.93;;;3.10;;
19207;SDS011;9737;59.466;18.036;2023-04-24T04:59:52;9.00;;;3.20;;
19207;SDS011;9737;59.466;18.036;2023-04-24T05:02:20;6.60;;;3.20;;
19207;SDS011;9737;59.466;18.036;2023-04-24T05:04:48;5.32;;;3.08;;
19207;SDS011;9737;59.466;18.036;2023-04-24T05:07:18;6.60;;;3.70;;
19207;SDS011;9737;59.466;18.036;2023-04-24T05:09:45;8.30;;;3.30;;
19207;SDS011;9737;59.466;18.036;2023-04-24T05:12:13;8.65;;;3.47;;
19207;SDS011;9737;59.466;18.036;2023-04-24T05:14:41;7.20;;;3.17;;
19207;SDS011;9737;59.466;18.036;2023-04-24T05:17:09;7.72;;;4.05;;
19207;SDS011;9737;59.466;18.036;2023-04-24T05:19:37;6.30;;;3.47;;
19207;SDS011;9737;59.466;18.036;2023-04-24T05:22:06;8.18;;;3.17;;
19207;SDS011;9737;59.466;18.036;2023-04-24T05:24:35;8.30;;;3.15;;
19207;SDS011;9737;59.466;18.036;2023-04-24T05:27:03;5.88;;;3.17;;
19207;SDS011;9737;59.466;18.036;2023-04-24T05:29:32;6.90;;;3.22;;
19207;SDS011;9737;59.466;18.036;2023-04-24T05:32:00;5.97;;;3.15;;
19207;SDS011;9737;59.466;18.036;2023-04-24T05:35:45;9.52;;;3.75;;
19207;SDS011;9737;59.466;18.036;2023-04-24T05:38:13;8.73;;;3.22;;
19207;SDS011;9737;59.466;18.036;2023-04-24T05:40:44;5.32;;;3.10;;
19207;SDS011;9737;59.466;18.036;2023-04-24T05:43:12;8.48;;;3.80;;
19207;SDS011;9737;59.466;18.036;2023-04-24T05:45:40;7.85;;;3.80;;
19207;SDS011;9737;59.466;18.036;2023-04-24T05:48:07;6.50;;;3.38;;
19207;SDS011;9737;59.466;18.036;2023-04-24T05:50:35;9.13;;;4.10;;
19207;SDS011;9737;59.466;18.036;2023-04-24T05:53:05;10.75;;;3.95;;
19207;SDS011;9737;59.466;18.036;2023-04-24T05:55:33;6.55;;;3.42;;
19207;SDS011;9737;59.466;18.036;2023-04-24T05:58:02;8.95;;;4.13;;
19207;SDS011;9737;59.466;18.036;2023-04-24T06:00:30;8.60;;;3.80;;
19207;SDS011;9737;59.466;18.036;2023-04-24T06:02:59;9.80;;;4.50;;
19207;SDS011;9737;59.466;18.036;2023-04-24T06:05:27;9.60;;;4.40;;
19207;SDS011;9737;59.466;18.036;2023-04-24T06:07:55;7.78;;;5.32;;
19207;SDS011;9737;59.466;18.036;2023-04-24T06:10:24;7.97;;;4.57;;
19207;SDS011;9737;59.466;18.036;2023-04-24T06:12:52;7.97;;;4.10;;
19207;SDS011;9737;59.466;18.036;2023-04-24T06:15:22;6.57;;;4.13;;
19207;SDS011;9737;59.466;18.036;2023-04-24T06:17:50;7.03;;;4.20;;
19207;SDS011;9737;59.466;18.036;2023-04-24T06:20:18;9.75;;;4.30;;
19207;SDS011;9737;59.466;18.036;2023-04-24T06:22:46;6.25;;;4.10;;
19207;SDS011;9737;59.466;18.036;2023-04-24T06:25:14;5.57;;;3.80;;
19207;SDS011;9737;59.466;18.036;2023-04-24T06:27:43;11.13;;;3.85;;
19207;SDS011;9737;59.466;18.036;2023-04-24T06:30:11;7.43;;;4.32;;
19207;SDS011;9737;59.466;18.036;2023-04-24T06:32:39;7.90;;;3.97;;
19207;SDS011;9737;59.466;18.036;2023-04-24T06:35:08;9.05;;;4.13;;
19207;SDS011;9737;59.466;18.036;2023-04-24T06:37:36;7.55;;;4.40;;
19207;SDS011;9737;59.466;18.036;2023-04-24T06:40:04;8.55;;;4.20;;
19207;SDS011;9737;59.466;18.036;2023-04-24T06:42:34;6.97;;;4.25;;
19207;SDS011;9737;59.466;18.036;2023-04-24T06:45:04;8.30;;;4.30;;
19207;SDS011;9737;59.466;18.036;2023-04-24T06:47:32;6.28;;;3.67;;
19207;SDS011;9737;59.466;18.036;2023-04-24T06:50:00;8.48;;;3.58;;
19207;SDS011;9737;59.466;18.036;2023-04-24T06:52:28;9.02;;;3.70;;
19207;SDS011;9737;59.466;18.036;2023-04-24T06:54:59;9.10;;;3.60;;
19207;SDS011;9737;59.466;18.036;2023-04-24T06:57:28;9.77;;;3.55;;
19207;SDS011;9737;59.466;18.036;2023-04-24T06:59:56;8.95;;;4.00;;
19207;SDS011;9737;59.466;18.036;2023-04-24T07:02:25;15.50;;;3.78;;
19207;SDS011;9737;59.466;18.036;2023-04-24T07:04:54;5.97;;;3.38;;
19207;SDS011;9737;59.466;18.036;2023-04-24T07:07:23;6.22;;;3.58;;
19207;SDS011;9737;59.466;18.036;2023-04-24T07:09:51;6.03;;;3.33;;
19207;SDS011;9737;59.466;18.036;2023-04-24T07:12:18;4.60;;;3.10;;
19207;SDS011;9737;59.466;18.036;2023-04-24T07:14:47;5.93;;;3.50;;
19207;SDS011;9737;59.466;18.036;2023-04-24T07:17:16;5.78;;;3.33;;
19207;SDS011;9737;59.466;18.036;2023-04-24T07:19:45;5.70;;;3.80;;
19207;SDS011;9737;59.466;18.036;2023-04-24T07:22:13;6.38;;;3.35;;
19207;SDS011;9737;59.466;18.036;2023-04-24T07:24:43;6.05;;;3.65;;
19207;SDS011;9737;59.466;18.036;2023-04-24T07:27:11;6.10;;;3.72;;
19207;SDS011;9737;59.466;18.036;2023-04-24T07:29:41;5.30;;;3.55;;
19207;SDS011;9737;59.466;18.036;2023-04-24T07:32:10;7.18;;;3.67;;
19207;SDS011;9737;59.466;18.036;2023-04-24T07:34:38;8.52;;;3.42;;
19207;SDS011;9737;59.466;18.036;2023-04-24T07:37:08;6.38;;;3.72;;
19207;SDS011;9737;59.466;18.036;2023-04-24T07:39:36;5.50;;;3.67;;
19207;SDS011;9737;59.466;18.036;2023-04-24T07:42:03;6.22;;;3.70;;
19207;SDS011;9737;59.466;18.036;2023-04-24T07:44:31;5.18;;;3.75;;
19207;SDS011;9737;59.466;18.036;2023-04-24T07:46:59;6.88;;;3.80;;
19207;SDS011;9737;59.466;18.036;2023-04-24T07:49:27;5.30;;;3.78;;
19207;SDS011;9737;59.466;18.036;2023-04-24T07:51:55;5.88;;;3.97;;
19207;SDS011;9737;59.466;18.036;2023-04-24T07:54:24;5.78;;;4.00;;
19207;SDS011;9737;59.466;18.036;2023-04-24T07:56:52;7.35;;;4.50;;
19207;SDS011;9737;59.466;18.036;2023-04-24T07:59:20;8.68;;;4.18;;
19207;SDS011;9737;59.466;18.036;2023-04-24T08:01:48;5.60;;;3.92;;
19207;SDS011;9737;59.466;18.036;2023-04-24T08:04:16;7.45;;;4.50;;
19207;SDS011;9737;59.466;18.036;2023-04-24T08:06:44;4.40;;;3.65;;
19207;SDS011;9737;59.466;18.036;2023-04-24T08:09:12;4.38;;;3.67;;
19207;SDS011;9737;59.466;18.036;2023-04-24T08:11:41;6.38;;;4.22;;
19207;SDS011;9737;59.466;18.036;2023-04-24T08:14:09;12.25;;;4.47;;
19207;SDS011;9737;59.466;18.036;2023-04-24T08:16:39;7.70;;;4.30;;
19207;SDS011;9737;59.466;18.036;2023-04-24T08:19:08;7.30;;;4.45;;
19207;SDS011;9737;59.466;18.036;2023-04-24T08:21:36;7.32;;;4.07;;
19207;SDS011;9737;59.466;18.036;2023-04-24T08:24:04;6.13;;;4.07;;
19207;SDS011;9737;59.466;18.036;2023-04-24T08:26:34;5.63;;;4.28;;
19207;SDS011;9737;59.466;18.036;2023-04-24T08:29:03;6.97;;;3.90;;
19207;SDS011;9737;59.466;18.036;2023-04-24T08:31:33;7.35;;;3.85;;
19207;SDS011;9737;59.466;18.036;2023-04-24T08:34:01;6.60;;;4.38;;
19207;SDS011;9737;59.466;18.036;2023-04-24T08:36:30;10.07;;;4.80;;
19207;SDS011;9737;59.466;18.036;2023-04-24T08:39:12;5.10;;;3.55;;
19207;SDS011;9737;59.466;18.036;2023-04-24T08:41:41;6.30;;;3.72;;
19207;SDS011;9737;59.466;18.036;2023-04-24T08:44:13;4.97;;;3.80;;
19207;SDS011;9737;59.466;18.036;2023-04-24T08:46:42;4.68;;;3.50;;
19207;SDS011;9737;59.466;18.036;2023-04-24T08:49:11;6.25;;;3.88;;
19207;SDS011;9737;59.466;18.036;2023-04-24T08:51:42;6.97;;;3.70;;
19207;SDS011;9737;59.466;18.036;2023-04-24T08:56:40;6.22;;;4.18;;
19207;SDS011;9737;59.466;18.036;2023-04-24T08:59:12;6.35;;;4.32;;
19207;SDS011;9737;59.466;18.036;2023-04-24T09:01:41;5.90;;;3.00;;
19207;SDS011;9737;59.466;18.036;2023-04-24T09:04:10;5.63;;;3.40;;
19207;SDS011;9737;59.466;18.036;2023-04-24T09:06:41;8.13;;;3.35;;
19207;SDS011;9737;59.466;18.036;2023-04-24T09:09:10;4.43;;;3.13;;
19207;SDS011;9737;59.466;18.036;2023-04-24T09:11:38;8.82;;;3.55;;
19207;SDS011;9737;59.466;18.036;2023-04-24T09:14:07;5.90;;;2.90;;
19207;SDS011;9737;59.466;18.036;2023-04-24T09:16:38;6.57;;;3.15;;
19207;SDS011;9737;59.466;18.036;2023-04-24T09:19:07;5.72;;;3.97;;
19207;SDS011;9737;59.466;18.036;2023-04-24T09:21:35;3.38;;;2.90;;
19207;SDS011;9737;59.466;18.036;2023-04-24T09:24:14;4.32;;;3.22;;
19207;SDS011;9737;59.466;18.036;2023-04-24T09:26:44;5.90;;;3.50;;
19207;SDS011;9737;59.466;18.036;2023-04-24T09:29:14;3.92;;;3.13;;
19207;SDS011;9737;59.466;18.036;2023-04-24T09:31:44;3.85;;;3.03;;
19207;SDS011;9737;59.466;18.036;2023-04-24T09:34:13;4.80;;;3.40;;
19207;SDS011;9737;59.466;18.036;2023-04-24T09:36:41;4.85;;;3.10;;
19207;SDS011;9737;59.466;18.036;2023-04-24T09:39:11;4.20;;;3.00;;
19207;SDS011;9737;59.466;18.036;2023-04-24T09:41:46;10.90;;;3.35;;
19207;SDS011;9737;59.466;18.036;2023-04-24T09:44:15;4.18;;;2.85;;
19207;SDS011;9737;59.466;18.036;2023-04-24T09:46:50;4.68;;;2.95;;
19207;SDS011;9737;59.466;18.036;2023-04-24T09:49:21;4.22;;;3.10;;
19207;SDS011;9737;59.466;18.036;2023-04-24T09:51:50;8.00;;;3.00;;
19207;SDS011;9737;59.466;18.036;2023-04-24T09:54:19;8.63;;;3.22;;
19207;SDS011;9737;59.466;18.036;2023-04-24T09:56:49;7.13;;;3.20;;
19207;SDS011;9737;59.466;18.036;2023-04-24T09:59:18;4.93;;;2.95;;
19207;SDS011;9737;59.466;18.036;2023-04-24T10:01:47;3.88;;;2.85;;
19207;SDS011;9737;59.466;18.036;2023-04-24T10:04:17;3.85;;;3.08;;
19207;SDS011;9737;59.466;18.036;2023-04-24T10:06:47;5.28;;;3.20;;
19207;SDS011;9737;59.466;18.036;2023-04-24T10:09:16;5.55;;;3.10;;
19207;SDS011;9737;59.466;18.036;2023-04-24T10:11:45;5.95;;;3.65;;
19207;SDS011;9737;59.466;18.036;2023-04-24T10:14:15;4.78;;;3.42;;
19207;SDS011;9737;59.466;18.036;2023-04-24T10:16:44;7.07;;;3.28;;
19207;SDS011;9737;59.466;18.036;2023-04-24T10:19:13;6.45;;;3.25;;
19207;SDS011;9737;59.466;18.036;2023-04-24T10:21:44;4.28;;;3.30;;
19207;SDS011;9737;59.466;18.036;2023-04-24T10:24:13;4.45;;;3.22;;
19207;SDS011;9737;59.466;18.036;2023-04-24T10:26:42;6.32;;;2.80;;
19207;SDS011;9737;59.466;18.036;2023-04-24T10:29:12;4.85;;;3.25;;
19207;SDS011;9737;59.466;18.036;2023-04-24T10:31:42;4.28;;;2.92;;
19207;SDS011;9737;59.466;18.036;2023-04-24T10:34:12;6.15;;;3.00;;
19207;SDS011;9737;59.466;18.036;2023-04-24T10:36:45;3.70;;;3.00;;
19207;SDS011;9737;59.466;18.036;2023-04-24T10:39:16;7.05;;;3.00;;
19207;SDS011;9737;59.466;18.036;2023-04-24T10:41:53;4.93;;;3.50;;
19207;SDS011;9737;59.466;18.036;2023-04-24T10:44:23;6.25;;;3.13;;
19207;SDS011;9737;59.466;18.036;2023-04-24T10:46:53;4.93;;;3.20;;
19207;SDS011;9737;59.466;18.036;2023-04-24T10:49:27;10.00;;;3.38;;
19207;SDS011;9737;59.466;18.036;2023-04-24T10:52:01;6.53;;;3.45;;
19207;SDS011;9737;59.466;18.036;2023-04-24T10:54:34;5.47;;;3.20;;
19207;SDS011;9737;59.466;18.036;2023-04-24T11:00:10;3.40;;;2.63;;
19207;SDS011;9737;59.466;18.036;2023-04-24T11:02:42;4.00;;;3.03;;
19207;SDS011;9737;59.466;18.036;2023-04-24T11:05:16;3.45;;;2.85;;
19207;SDS011;9737;59.466;18.036;2023-04-24T11:10:40;11.23;;;3.10;;
19207;SDS011;9737;59.466;18.036;2023-04-24T11:13:10;6.15;;;3.25;;
19207;SDS011;9737;59.466;18.036;2023-04-24T11:15:40;9.23;;;3.42;;
19207;SDS011;9737;59.466;18.036;2023-04-24T11:18:12;6.53;;;3.08;;
19207;SDS011;9737;59.466;18.036;2023-04-24T11:20:42;6.25;;;3.80;;
19207;SDS011;9737;59.466;18.036;2023-04-24T11:23:12;9.20;;;3.28;;
19207;SDS011;9737;59.466;18.036;2023-04-24T11:25:41;5.35;;;3.45;;
19207;SDS011;9737;59.466;18.036;2023-04-24T11:28:09;4.53;;;3.65;;
19207;SDS011;9737;59.466;18.036;2023-04-24T11:30:43;4.10;;;3.35;;
19207;SDS011;9737;59.466;18.036;2023-04-24T11:33:11;5.32;;;3.63;;
19207;SDS011;9737;59.466;18.036;2023-04-24T11:35:47;6.35;;;3.70;;
19207;SDS011;9737;59.466;18.036;2023-04-24T11:38:16;4.53;;;3.20;;
19207;SDS011;9737;59.466;18.036;2023-04-24T11:40:50;4.70;;;3.33;;
19207;SDS011;9737;59.466;18.036;2023-04-24T11:43:19;5.97;;;3.22;;
19207;SDS011;9737;59.466;18.036;2023-04-24T11:45:48;6.20;;;3.33;;
19207;SDS011;9737;59.466;18.036;2023-04-24T11:48:18;4.82;;;3.50;;
19207;SDS011;9737;59.466;18.036;2023-04-24T11:50:49;22.20;;;8.73;;
19207;SDS011;9737;59.466;18.036;2023-04-24T11:53:19;7.18;;;4.00;;
19207;SDS011;9737;59.466;18.036;2023-04-24T11:55:47;5.30;;;3.50;;
19207;SDS011;9737;59.466;18.036;2023-04-24T11:58:16;9.93;;;3.80;;
19207;SDS011;9737;59.466;18.036;2023-04-24T12:00:54;6.50;;;3.70;;
19207;SDS011;9737;59.466;18.036;2023-04-24T12:03:23;12.88;;;3.95;;
19207;SDS011;9737;59.466;18.036;2023-04-24T12:05:52;8.25;;;3.83;;
19207;SDS011;9737;59.466;18.036;2023-04-24T12:08:28;14.40;;;4.20;;
19207;SDS011;9737;59.466;18.036;2023-04-24T12:10:56;8.73;;;3.85;;
19207;SDS011;9737;59.466;18.036;2023-04-24T12:13:25;7.45;;;4.03;;
19207;SDS011;9737;59.466;18.036;2023-04-24T12:15:53;23.95;;;4.38;;
19207;SDS011;9737;59.466;18.036;2023-04-24T12:18:22;7.63;;;4.10;;
19207;SDS011;9737;59.466;18.036;2023-04-24T12:20:50;16.67;;;5.00;;
19207;SDS011;9737;59.466;18.036;2023-04-24T12:26:11;18.90;;;5.03;;
19207;SDS011;9737;59.466;18.036;2023-04-24T12:28:39;12.43;;;4.47;;
19207;SDS011;9737;59.466;18.036;2023-04-24T12:31:07;10.43;;;4.55;;
19207;SDS011;9737;59.466;18.036;2023-04-24T12:33:35;11.43;;;4.50;;
19207;SDS011;9737;59.466;18.036;2023-04-24T12:36:05;9.65;;;5.07;;
19207;SDS011;9737;59.466;18.036;2023-04-24T12:38:33;11.63;;;4.95;;
19207;SDS011;9737;59.466;18.036;2023-04-24T12:41:07;9.38;;;4.78;;
19207;SDS011;9737;59.466;18.036;2023-04-24T12:43:37;8.75;;;4.55;;
19207;SDS011;9737;59.466;18.036;2023-04-24T12:46:05;41.25;;;6.13;;
19207;SDS011;9737;59.466;18.036;2023-04-24T12:48:33;14.60;;;4.60;;
19207;SDS011;9737;59.466;18.036;2023-04-24T12:51:05;10.52;;;4.80;;
19207;SDS011;9737;59.466;18.036;2023-04-24T12:53:33;13.52;;;5.30;;
19207;SDS011;9737;59.466;18.036;2023-04-24T12:56:01;11.27;;;5.10;;
19207;SDS011;9737;59.466;18.036;2023-04-24T12:58:28;7.85;;;5.22;;
19207;SDS011;9737;59.466;18.036;2023-04-24T13:00:58;10.23;;;5.30;;
19207;SDS011;9737;59.466;18.036;2023-04-24T13:03:27;9.20;;;5.18;;
19207;SDS011;9737;59.466;18.036;2023-04-24T13:05:55;8.15;;;4.65;;
19207;SDS011;9737;59.466;18.036;2023-04-24T13:08:23;10.02;;;5.60;;
19207;SDS011;9737;59.466;18.036;2023-04-24T13:10:51;10.18;;;5.10;;
19207;SDS011;9737;59.466;18.036;2023-04-24T13:13:20;9.07;;;4.63;;
19207;SDS011;9737;59.466;18.036;2023-04-24T13:15:48;8.60;;;5.13;;
19207;SDS011;9737;59.466;18.036;2023-04-24T13:18:17;8.50;;;5.07;;
19207;SDS011;9737;59.466;18.036;2023-04-24T13:20:45;10.35;;;4.65;;
19207;SDS011;9737;59.466;18.036;2023-04-24T13:23:13;10.27;;;5.20;;
19207;SDS011;9737;59.466;18.036;2023-04-24T13:25:42;10.82;;;5.75;;
19207;SDS011;9737;59.466;18.036;2023-04-24T13:28:09;8.85;;;5.13;;
19207;SDS011;9737;59.466;18.036;2023-04-24T13:30:38;12.00;;;5.60;;
19207;SDS011;9737;59.466;18.036;2023-04-24T13:33:05;7.13;;;4.85;;
19207;SDS011;9737;59.466;18.036;2023-04-24T13:35:35;8.95;;;5.20;;
19207;SDS011;9737;59.466;18.036;2023-04-24T13:38:03;9.90;;;4.95;;
19207;SDS011;9737;59.466;18.036;2023-04-24T13:40:32;8.32;;;5.18;;
19207;SDS011;9737;59.466;18.036;2023-04-24T13:43:00;9.05;;;4.50;;
19207;SDS011;9737;59.466;18.036;2023-04-24T13:45:29;10.65;;;5.00;;
19207;SDS011;9737;59.466;18.036;2023-04-24T13:47:56;9.20;;;4.72;;
19207;SDS011;9737;59.466;18.036;2023-04-24T13:50:24;8.05;;;4.60;;
19207;SDS011;9737;59.466;18.036;2023-04-24T13:52:54;8.32;;;4.40;;
19207;SDS011;9737;59.466;18.036;2023-04-24T13:55:23;7.63;;;4.38;;
19207;SDS011;9737;59.466;18.036;2023-04-24T13:57:50;7.50;;;4.28;;
19207;SDS011;9737;59.466;18.036;2023-04-24T14:00:21;9.02;;;4.57;;
19207;SDS011;9737;59.466;18.036;2023-04-24T14:02:49;8.73;;;4.40;;
19207;SDS011;9737;59.466;18.036;2023-04-24T14:05:17;12.23;;;4.70;;
19207;SDS011;9737;59.466;18.036;2023-04-24T14:07:45;12.05;;;5.18;;
19207;SDS011;9737;59.466;18.036;2023-04-24T14:10:14;15.45;;;5.10;;
19207;SDS011;9737;59.466;18.036;2023-04-24T14:12:42;9.57;;;5.60;;
19207;SDS011;9737;59.466;18.036;2023-04-24T14:15:10;11.20;;;4.85;;
19207;SDS011;9737;59.466;18.036;2023-04-24T14:17:39;11.45;;;5.07;;
19207;SDS011;9737;59.466;18.036;2023-04-24T14:20:08;8.52;;;5.20;;
19207;SDS011;9737;59.466;18.036;2023-04-24T14:22:36;7.32;;;4.90;;
19207;SDS011;9737;59.466;18.036;2023-04-24T14:25:04;8.57;;;4.70;;
19207;SDS011;9737;59.466;18.036;2023-04-24T14:27:34;10.02;;;4.50;;
19207;SDS011;9737;59.466;18.036;2023-04-24T14:30:02;7.93;;;4.97;;
19207;SDS011;9737;59.466;18.036;2023-04-24T14:32:31;7.70;;;5.00;;
19207;SDS011;9737;59.466;18.036;2023-04-24T14:34:59;12.45;;;4.85;;
19207;SDS011;9737;59.466;18.036;2023-04-24T14:37:26;13.30;;;5.10;;
19207;SDS011;9737;59.466;18.036;2023-04-24T14:39:54;10.18;;;5.20;;
19207;SDS011;9737;59.466;18.036;2023-04-24T14:42:43;9.27;;;5.07;;
19207;SDS011;9737;59.466;18.036;2023-04-24T14:45:11;12.30;;;5.35;;
19207;SDS011;9737;59.466;18.036;2023-04-24T14:47:39;13.65;;;5.97;;
19207;SDS011;9737;59.466;18.036;2023-04-24T14:50:07;6.88;;;5.07;;
19207;SDS011;9737;59.466;18.036;2023-04-24T14:52:36;10.98;;;4.85;;
19207;SDS011;9737;59.466;18.036;2023-04-24T14:55:05;8.35;;;4.90;;
19207;SDS011;9737;59.466;18.036;2023-04-24T14:57:34;10.32;;;5.20;;
19207;SDS011;9737;59.466;18.036;2023-04-24T15:00:05;15.43;;;4.90;;
19207;SDS011;9737;59.466;18.036;2023-04-24T15:02:35;15.55;;;5.35;;
19207;SDS011;9737;59.466;18.036;2023-04-24T15:05:08;7.37;;;4.50;;
19207;SDS011;9737;59.466;18.036;2023-04-24T15:07:36;10.70;;;5.22;;